createdAt,value
2023-03-20T00:00:25.101Z,11.43
2023-03-20T00:05:54.707Z,11.07
2023-03-20T00:11:48.315Z,11.32
2023-03-20T00:17:18.376Z,11.95
2023-03-20T00:22:39.325Z,10.63
2023-03-20T00:27:59.985Z,11.30
2023-03-20T00:33:20.632Z,10.77
2023-03-20T00:38:43.178Z,11.75
2023-03-20T00:44:43.696Z,12.68
2023-03-20T00:50:15.273Z,12.95
2023-03-20T00:55:36.249Z,12.95
2023-03-20T01:00:57.298Z,12.95
2023-03-20T01:06:19.092Z,12.75
2023-03-20T01:11:41.600Z,12.07
2023-03-20T01:17:02.813Z,11.88
2023-03-20T01:22:23.582Z,12.13
2023-03-20T01:27:51.721Z,12.65
2023-03-20T01:33:18.513Z,12.20
2023-03-20T01:38:43.184Z,12.27
2023-03-20T01:44:19.756Z,14.30
2023-03-20T01:50:00.295Z,11.82
2023-03-20T01:55:22.212Z,12.73
2023-03-20T02:00:49.949Z,12.10
2023-03-20T02:06:13.093Z,12.10
2023-03-20T02:11:53.924Z,12.38
2023-03-20T02:17:15.749Z,13.40
2023-03-20T02:23:24.547Z,12.40
2023-03-20T02:29:09.388Z,12.25
2023-03-20T02:34:54.521Z,12.30
2023-03-20T02:40:25.226Z,12.85
2023-03-20T02:45:56.626Z,11.73
2023-03-20T02:51:22.496Z,12.40
2023-03-20T02:56:51.367Z,11.55
2023-03-20T03:02:18.771Z,12.03
2023-03-20T03:07:44.505Z,12.35
2023-03-20T03:13:11.419Z,13.48
2023-03-20T03:18:35.970Z,15.95
2023-03-20T03:23:57.532Z,15.93
2023-03-20T03:29:19.972Z,15.57
2023-03-20T03:34:40.936Z,16.50
2023-03-20T03:40:32.872Z,16.23
2023-03-20T03:46:00.518Z,18.57
2023-03-20T03:51:25.182Z,15.98
2023-03-20T03:57:10.340Z,15.10
2023-03-20T04:02:31.301Z,14.35
2023-03-20T04:07:58.177Z,14.82
2023-03-20T04:13:19.225Z,13.80
2023-03-20T04:18:41.325Z,13.93
2023-03-20T04:24:06.142Z,14.07
2023-03-20T04:29:27.066Z,13.40
2023-03-20T04:35:11.326Z,13.45
2023-03-20T04:40:47.578Z,11.95
2023-03-20T04:46:08.546Z,13.05
2023-03-20T04:51:29.066Z,12.80
2023-03-20T04:56:50.315Z,11.75
2023-03-20T05:02:15.150Z,11.40
2023-03-20T05:07:36.463Z,11.65
2023-03-20T05:13:06.077Z,12.37
2023-03-20T05:18:54.167Z,12.90
2023-03-20T05:24:33.567Z,12.18
2023-03-20T05:30:06.631Z,11.68
2023-03-20T05:35:50.658Z,11.57
2023-03-20T05:41:25.394Z,10.60
2023-03-20T05:47:12.424Z,12.15
2023-03-20T05:52:55.643Z,12.57
2023-03-20T05:58:37.248Z,12.07
2023-03-20T06:04:13.896Z,12.30
2023-03-20T06:09:59.912Z,11.50
2023-03-20T06:15:22.259Z,11.07
2023-03-20T06:20:54.241Z,7.28
2023-03-20T06:26:15.102Z,8.73
2023-03-20T06:31:49.995Z,8.95
2023-03-20T06:37:20.777Z,9.02
2023-03-20T06:42:42.739Z,8.82
2023-03-20T06:48:08.802Z,8.73
2023-03-20T06:53:29.471Z,9.18
2023-03-20T06:59:14.026Z,9.40
2023-03-20T07:04:35.205Z,8.93
2023-03-20T07:09:58.286Z,8.55
2023-03-20T07:15:20.182Z,9.13
2023-03-20T07:20:41.579Z,7.70
2023-03-20T07:26:03.500Z,8.27
2023-03-20T07:31:26.995Z,8.57
2023-03-20T07:36:56.784Z,7.82
2023-03-20T07:42:17.794Z,7.72
2023-03-20T07:47:46.279Z,7.90
2023-03-20T07:53:08.115Z,8.07
2023-03-20T07:58:28.863Z,8.63
2023-03-20T08:03:49.899Z,8.77
2023-03-20T08:09:11.295Z,7.95
2023-03-20T08:14:32.323Z,5.80
2023-03-20T08:19:52.993Z,7.00
2023-03-20T08:25:13.685Z,6.45
2023-03-20T08:30:34.664Z,6.65
2023-03-20T08:35:57.431Z,6.82
2023-03-20T08:41:19.114Z,7.00
2023-03-20T08:46:40.073Z,7.13
2023-03-20T08:52:01.039Z,7.10
2023-03-20T08:57:21.786Z,6.60
2023-03-20T09:02:43.336Z,7.28
2023-03-20T09:08:04.297Z,5.78
2023-03-20T09:13:27.877Z,5.25
2023-03-20T09:18:48.961Z,5.65
2023-03-20T09:24:09.570Z,5.75
2023-03-20T09:29:30.373Z,5.13
2023-03-20T09:34:51.378Z,4.97
2023-03-20T09:40:28.954Z,5.32
2023-03-20T09:46:10.081Z,5.15
2023-03-20T09:51:36.319Z,4.07
2023-03-20T09:56:57.799Z,4.43
2023-03-20T10:02:30.251Z,3.90
2023-03-20T10:07:54.608Z,3.95
2023-03-20T10:13:31.167Z,3.80
2023-03-20T10:19:04.993Z,2.97
2023-03-20T10:24:49.874Z,3.38
2023-03-20T10:30:14.014Z,3.20
2023-03-20T10:35:58.683Z,3.65
2023-03-20T10:41:23.298Z,3.97
2023-03-20T10:46:48.747Z,3.03
2023-03-20T10:52:40.765Z,3.13
2023-03-20T10:58:23.126Z,1.83
2023-03-20T11:03:44.247Z,1.95
2023-03-20T11:09:18.723Z,2.10
2023-03-20T11:14:39.957Z,1.55
2023-03-20T11:20:05.903Z,1.70
2023-03-20T11:25:33.108Z,1.23
2023-03-20T11:31:05.383Z,0.95
2023-03-20T11:36:37.665Z,1.92
2023-03-20T11:42:01.983Z,0.93
2023-03-20T11:47:26.522Z,0.88
2023-03-20T11:52:47.509Z,0.80
2023-03-20T11:58:16.973Z,0.80
2023-03-20T12:09:45.983Z,0.80
2023-03-20T12:15:12.982Z,1.00
2023-03-20T12:20:44.302Z,0.73
2023-03-20T12:26:15.660Z,0.82
2023-03-20T12:31:46.107Z,1.23
2023-03-20T12:37:13.340Z,0.70
2023-03-20T12:42:55.302Z,0.90
2023-03-20T12:48:41.323Z,2.83
2023-03-20T12:54:19.856Z,0.98
2023-03-20T12:59:55.544Z,0.90
2023-03-20T13:05:40.746Z,1.33
2023-03-20T13:11:14.232Z,1.10
2023-03-20T13:16:45.984Z,1.20
2023-03-20T13:22:15.382Z,1.20
2023-03-20T13:27:49.974Z,0.83
2023-03-20T13:33:52.401Z,0.65
2023-03-20T13:39:25.324Z,0.60
2023-03-20T13:44:48.423Z,0.40
2023-03-20T13:50:15.303Z,0.43
2023-03-20T13:55:54.148Z,0.50
2023-03-20T14:01:23.609Z,0.40
2023-03-20T14:06:54.334Z,0.40
2023-03-20T14:12:15.699Z,0.40
2023-03-20T14:17:44.338Z,0.40
2023-03-20T14:23:07.394Z,0.40
2023-03-20T14:28:34.092Z,0.47
2023-03-20T14:34:08.899Z,0.40
2023-03-20T14:39:32.373Z,0.82
2023-03-20T14:45:30.972Z,0.88
2023-03-20T14:51:07.113Z,0.85
2023-03-20T14:56:33.326Z,0.93
2023-03-20T15:01:54.892Z,0.70
2023-03-20T15:07:21.655Z,1.25
2023-03-20T15:12:43.692Z,1.00
2023-03-20T15:18:14.403Z,1.10
2023-03-20T15:23:35.631Z,0.75
2023-03-20T15:29:11.096Z,1.20
2023-03-20T15:34:33.792Z,1.38
2023-03-20T15:39:56.769Z,1.05
2023-03-20T15:45:26.181Z,1.10
2023-03-20T15:50:53.644Z,0.80
2023-03-20T15:56:20.204Z,1.10
2023-03-20T16:01:41.231Z,1.17
2023-03-20T16:07:03.249Z,1.13
2023-03-20T16:12:24.300Z,0.93
2023-03-20T16:17:46.484Z,1.05
2023-03-20T16:23:09.606Z,1.40
2023-03-20T16:28:30.920Z,1.13
2023-03-20T16:33:52.834Z,1.30
2023-03-20T16:39:18.946Z,0.90
2023-03-20T16:44:41.953Z,1.27
2023-03-20T16:50:05.844Z,1.10
2023-03-20T16:55:31.521Z,1.02
2023-03-20T17:00:59.896Z,0.75
2023-03-20T17:06:23.745Z,0.90
2023-03-20T17:11:51.270Z,1.20
2023-03-20T17:17:19.460Z,0.88
2023-03-20T17:22:40.504Z,1.00
2023-03-20T17:28:01.162Z,1.20
2023-03-20T17:33:22.161Z,1.10
2023-03-20T17:38:42.818Z,0.88
2023-03-20T17:44:04.058Z,1.10
2023-03-20T17:49:27.418Z,1.13
2023-03-20T17:54:48.457Z,0.90
2023-03-20T18:00:19.748Z,1.00
2023-03-20T18:05:40.798Z,3.92
2023-03-20T18:11:01.843Z,3.10
2023-03-20T18:16:25.487Z,1.48
2023-03-20T18:21:46.391Z,1.70
2023-03-20T18:27:07.574Z,2.75
2023-03-20T18:32:28.721Z,3.80
2023-03-20T18:37:49.354Z,3.70
2023-03-20T18:43:11.191Z,3.40
2023-03-20T18:48:32.911Z,2.90
2023-03-20T18:53:53.828Z,3.05
2023-03-20T18:59:14.674Z,2.60
2023-03-20T19:04:35.474Z,2.20
2023-03-20T19:09:56.242Z,2.28
2023-03-20T19:15:17.009Z,2.10
2023-03-20T19:20:44.177Z,1.52
2023-03-20T19:26:13.122Z,1.80
2023-03-20T19:31:34.153Z,1.70
2023-03-20T19:36:55.066Z,1.55
2023-03-20T19:42:47.525Z,1.80
2023-03-20T19:47:57.563Z,1.83
2023-03-20T19:53:21.593Z,1.85
2023-03-20T19:58:43.312Z,1.70
2023-03-20T20:04:04.304Z,1.67
2023-03-20T20:09:24.893Z,1.33
2023-03-20T20:14:46.548Z,1.40
2023-03-20T20:20:09.667Z,1.38
2023-03-20T20:25:31.078Z,1.63
2023-03-20T20:30:55.623Z,1.55
2023-03-20T20:41:57.473Z,1.30
2023-03-20T20:47:18.361Z,2.25
2023-03-20T20:52:41.681Z,2.30
2023-03-20T20:58:04.068Z,2.67
2023-03-20T21:03:25.447Z,2.40
2023-03-20T21:08:46.371Z,2.47
2023-03-20T21:14:07.365Z,2.05
2023-03-20T21:19:34.784Z,2.08
2023-03-20T21:25:13.035Z,2.78
2023-03-20T21:30:36.025Z,2.00
2023-03-20T21:35:56.794Z,2.70
2023-03-20T21:41:17.645Z,2.60
2023-03-20T22:04:37.613Z,2.40
2023-03-20T22:21:37.041Z,2.28
2023-03-20T22:27:32.540Z,2.28
2023-03-20T22:38:34.640Z,3.00
2023-03-20T22:44:24.849Z,2.97
2023-03-20T22:49:09.324Z,2.75
2023-03-20T22:54:30.407Z,3.17
2023-03-20T22:59:51.229Z,3.05
2023-03-20T23:05:12.406Z,2.92
2023-03-20T23:10:33.469Z,2.90
2023-03-20T23:15:54.552Z,2.88
2023-03-20T23:21:15.157Z,3.22
2023-03-20T23:26:35.895Z,2.90
2023-03-20T23:31:56.597Z,3.00
2023-03-20T23:37:17.637Z,2.95
2023-03-20T23:42:38.638Z,3.15
2023-03-20T23:47:59.418Z,3.25
2023-03-20T23:53:21.174Z,3.60
2023-03-20T23:58:55.524Z,3.60
